Shun Cheng — BBUL — position and weather

sailwx.info

Track history (hours):
 
Tides and Currents Weather Stations Pressure Air Temp Water Temp Dewpoint Dewpoint Depression Visibility Wind Speed Wind Dir Waves Ship Positions

Shun Cheng

Last reported at 2014-Sep-22 04:34 UTC. Time now 2014-Sep-24 04:27 UTC.
Position N 31°56' E 132°06'.

Length 128 m; draft 6.1 m.

Type: Cargo ship. MMSI: 412949000.

Date/timePositionNaut miles runAvg speedWind from/ knotsBaromVisibWave heightAir tempDewpointWater temp
2014-Sep-22 04:34N 31°56' E 132°06'42012.7
2014-Sep-20 19:28N 35°03' E 139°37'1213.3
2014-Sep-20 18:33N 35°13' E 139°46'1212.0
2014-Sep-20 17:33N 35°25' E 139°43'1010.5
2014-Sep-20 16:33N 35°34' E 139°49'4 4.0
2014-Sep-20 15:30N 35°37' E 139°46'0 0.0
2014-Sep-20 14:30N 35°37' E 139°46'0 0.0
2014-Sep-20 13:24N 35°37' E 139°46'0 0.0
2014-Sep-20 12:12N 35°37' E 139°46'1 0.5
2014-Sep-20 11:11N 35°37' E 139°46'5 7.8
2014-Sep-20 10:33N 35°33' E 139°50'9 8.8
2014-Sep-20 09:33N 35°26' E 139°44'3 3.3
2014-Sep-20 08:31N 35°27' E 139°40'0 0.0
2014-Sep-20 07:31N 35°27' E 139°40'0 0.0
2014-Sep-20 06:31N 35°27' E 139°40'0 0.0
2014-Sep-20 05:31N 35°27' E 139°40'1 1.3
2014-Sep-20 04:33N 35°27' E 139°42'10 9.8
2014-Sep-20 03:33N 35°17' E 139°45'1111.0
2014-Sep-20 02:33N 35°06' E 139°44'242 6.5
2014-Sep-18 13:30N 34°08' E 134°58'1414.2
2014-Sep-18 12:31N 34°22' E 135°00'1314.0
2014-Sep-18 11:33N 34°31' E 135°13'9 8.8
2014-Sep-18 10:33N 34°40' E 135°14'0 0.1
2014-Sep-18 09:28N 34°40' E 135°14'0 0.0
2014-Sep-18 08:28N 34°40' E 135°14'0 0.0
2014-Sep-18 07:28N 34°40' E 135°14'0 0.0
2014-Sep-18 06:28N 34°40' E 135°14'0 0.0
2014-Sep-18 05:28N 34°40' E 135°14'1 1.0
2014-Sep-18 04:33N 34°39' E 135°15'7 7.3
2014-Sep-18 03:33N 34°39' E 135°24'2 1.5
2014-Sep-18 02:30N 34°39' E 135°26'0 0.0
2014-Sep-18 01:30N 34°39' E 135°26'0 0.0
2014-Sep-18 00:30N 34°39' E 135°26'0 0.3
2014-Sep-17 23:33N 34°39' E 135°26'7 6.6
2014-Sep-17 22:33N 34°35' E 135°19'1010.0
2014-Sep-17 21:33N 34°28' E 135°10'1010.0
2014-Sep-17 20:33N 34°21' E 135°01'9 8.7
2014-Sep-17 19:33N 34°13' E 134°59'9 9.1
2014-Sep-17 18:33N 34°04' E 134°59'58212.1
2014-Sep-15 18:21N 30°57' E 124°05'1012.3
2014-Sep-15 17:32N 30°58' E 123°54'1712.2
2014-Sep-15 16:09N 30°57' E 123°34'3312.1
2014-Sep-15 13:27N 30°59' E 122°56'6613.4
2014-Sep-15 08:29N 31°19' E 121°42'1010.9
2014-Sep-15 07:33N 31°24' E 121°32'8 8.2
2014-Sep-15 06:33N 31°30' E 121°25'1211.9
2014-Sep-15 05:33N 31°38' E 121°15'1413.6
2014-Sep-15 04:32N 31°46' E 121°02'1111.2
2014-Sep-15 03:33N 31°54' E 120°53'4 2.7
2014-Sep-15 02:06N 31°58' E 120°52'0 0.0
2014-Sep-15 01:30N 31°58' E 120°52'0 0.0
2014-Sep-15 00:18N 31°58' E 120°52'0 0.0
2014-Sep-14 23:24N 31°58' E 120°52'0 0.0
2014-Sep-14 22:33N 31°58' E 120°52'0 0.0
2014-Sep-14 20:21N 31°58' E 120°52'0 0.0
2014-Sep-14 19:27N 31°58' E 120°52'0 0.0
2014-Sep-14 18:15N 31°58' E 120°52'0 0.5
2014-Sep-14 17:33N 31°58' E 120°52'5 5.3
2014-Sep-14 16:34N 32°01' E 120°46'1312.5
2014-Sep-14 15:33N 32°01' E 120°32'7 6.5
2014-Sep-14 14:34N 31°58' E 120°25'0 0.0
2014-Sep-14 13:33N 31°58' E 120°25'0 0.0
2014-Sep-14 12:33N 31°58' E 120°25'0 0.0
2014-Sep-14 11:33N 31°58' E 120°25'0 0.0
2014-Sep-14 10:33N 31°58' E 120°25'0 0.0
2014-Sep-14 09:33N 31°58' E 120°25'0 0.0
2014-Sep-14 08:33N 31°58' E 120°25'0 0.0
2014-Sep-14 07:33N 31°58' E 120°25'0 0.0
2014-Sep-14 06:30N 31°58' E 120°25'0 0.0
2014-Sep-14 05:32N 31°58' E 120°25'0 0.0
2014-Sep-14 04:32N 31°58' E 120°25'0 0.0
2014-Sep-14 03:32N 31°58' E 120°25'4 4.2
2014-Sep-14 02:33N 31°58' E 120°20'1211.7
2014-Sep-14 01:33N 31°57' E 120°06'40 7.7
2014-Sep-13 20:21N 32°14' E 119°24'  
Track history (hours):
 
Tides and Currents Weather Stations Pressure Air Temp Water Temp Dewpoint Dewpoint Depression Visibility Wind Speed Wind Dir Waves Ship Positions

Shun Cheng

Last reported at 2014-Sep-22 04:34 UTC. Time now 2014-Sep-24 04:27 UTC.
Position N 31°56' E 132°06'.

Length 128 m; draft 6.1 m.

Type: Cargo ship. MMSI: 412949000.

Date/timePositionNaut miles runAvg speedWind from/ knotsBaromVisibWave heightAir tempDewpointWater temp
2014-Sep-22 04:34N 31°56' E 132°06'42012.7
2014-Sep-20 19:28N 35°03' E 139°37'1213.3
2014-Sep-20 18:33N 35°13' E 139°46'1212.0
2014-Sep-20 17:33N 35°25' E 139°43'1010.5
2014-Sep-20 16:33N 35°34' E 139°49'4 4.0
2014-Sep-20 15:30N 35°37' E 139°46'0 0.0
2014-Sep-20 14:30N 35°37' E 139°46'0 0.0
2014-Sep-20 13:24N 35°37' E 139°46'0 0.0
2014-Sep-20 12:12N 35°37' E 139°46'1 0.5
2014-Sep-20 11:11N 35°37' E 139°46'5 7.8
2014-Sep-20 10:33N 35°33' E 139°50'9 8.8
2014-Sep-20 09:33N 35°26' E 139°44'3 3.3
2014-Sep-20 08:31N 35°27' E 139°40'0 0.0
2014-Sep-20 07:31N 35°27' E 139°40'0 0.0
2014-Sep-20 06:31N 35°27' E 139°40'0 0.0
2014-Sep-20 05:31N 35°27' E 139°40'1 1.3
2014-Sep-20 04:33N 35°27' E 139°42'10 9.8
2014-Sep-20 03:33N 35°17' E 139°45'1111.0
2014-Sep-20 02:33N 35°06' E 139°44'242 6.5
2014-Sep-18 13:30N 34°08' E 134°58'1414.2
2014-Sep-18 12:31N 34°22' E 135°00'1314.0
2014-Sep-18 11:33N 34°31' E 135°13'9 8.8
2014-Sep-18 10:33N 34°40' E 135°14'0 0.1
2014-Sep-18 09:28N 34°40' E 135°14'0 0.0
2014-Sep-18 08:28N 34°40' E 135°14'0 0.0
2014-Sep-18 07:28N 34°40' E 135°14'0 0.0
2014-Sep-18 06:28N 34°40' E 135°14'0 0.0
2014-Sep-18 05:28N 34°40' E 135°14'1 1.0
2014-Sep-18 04:33N 34°39' E 135°15'7 7.3
2014-Sep-18 03:33N 34°39' E 135°24'2 1.5
2014-Sep-18 02:30N 34°39' E 135°26'0 0.0
2014-Sep-18 01:30N 34°39' E 135°26'0 0.0
2014-Sep-18 00:30N 34°39' E 135°26'0 0.3
2014-Sep-17 23:33N 34°39' E 135°26'7 6.6
2014-Sep-17 22:33N 34°35' E 135°19'1010.0
2014-Sep-17 21:33N 34°28' E 135°10'1010.0
2014-Sep-17 20:33N 34°21' E 135°01'9 8.7
2014-Sep-17 19:33N 34°13' E 134°59'9 9.1
2014-Sep-17 18:33N 34°04' E 134°59'58212.1
2014-Sep-15 18:21N 30°57' E 124°05'1012.3
2014-Sep-15 17:32N 30°58' E 123°54'1712.2
2014-Sep-15 16:09N 30°57' E 123°34'3312.1
2014-Sep-15 13:27N 30°59' E 122°56'6613.4
2014-Sep-15 08:29N 31°19' E 121°42'1010.9
2014-Sep-15 07:33N 31°24' E 121°32'8 8.2
2014-Sep-15 06:33N 31°30' E 121°25'1211.9
2014-Sep-15 05:33N 31°38' E 121°15'1413.6
2014-Sep-15 04:32N 31°46' E 121°02'1111.2
2014-Sep-15 03:33N 31°54' E 120°53'4 2.7
2014-Sep-15 02:06N 31°58' E 120°52'0 0.0
2014-Sep-15 01:30N 31°58' E 120°52'0 0.0
2014-Sep-15 00:18N 31°58' E 120°52'0 0.0
2014-Sep-14 23:24N 31°58' E 120°52'0 0.0
2014-Sep-14 22:33N 31°58' E 120°52'0 0.0
2014-Sep-14 20:21N 31°58' E 120°52'0 0.0
2014-Sep-14 19:27N 31°58' E 120°52'0 0.0
2014-Sep-14 18:15N 31°58' E 120°52'0 0.5
2014-Sep-14 17:33N 31°58' E 120°52'5 5.3
2014-Sep-14 16:34N 32°01' E 120°46'1312.5
2014-Sep-14 15:33N 32°01' E 120°32'7 6.5
2014-Sep-14 14:34N 31°58' E 120°25'0 0.0
2014-Sep-14 13:33N 31°58' E 120°25'0 0.0
2014-Sep-14 12:33N 31°58' E 120°25'0 0.0
2014-Sep-14 11:33N 31°58' E 120°25'0 0.0
2014-Sep-14 10:33N 31°58' E 120°25'0 0.0
2014-Sep-14 09:33N 31°58' E 120°25'0 0.0
2014-Sep-14 08:33N 31°58' E 120°25'0 0.0
2014-Sep-14 07:33N 31°58' E 120°25'0 0.0
2014-Sep-14 06:30N 31°58' E 120°25'0 0.0
2014-Sep-14 05:32N 31°58' E 120°25'0 0.0
2014-Sep-14 04:32N 31°58' E 120°25'0 0.0
2014-Sep-14 03:32N 31°58' E 120°25'4 4.2
2014-Sep-14 02:33N 31°58' E 120°20'1211.7
2014-Sep-14 01:33N 31°57' E 120°06'40 7.7
2014-Sep-13 20:21N 32°14' E 119°24'  

Dump ship's entire track history